Terminal Aerodrome Forecast
Issued by NWS

Home | Current Version | Previous Version | Text Only | Print | Product List | Glossary On
Versions: 1 2 3 4 5 6 7 8 9 10 11 12 13 14 15 16 17 18 19
000
FTUS42 KTBW 272321
TAFPGD
TAF
KPGD 272321Z 2800/2824 07006KT P6SM VCTS SCT035CB BKN100
     FM280200 06006KT P6SM FEW030 BKN150
     FM281500 08011KT P6SM SCT040 BKN250
     FM281800 08011G16KT P6SM VCTS BKN035CB BKN250=

USA.gov is the U.S. government's official web portal to all federal, state and local government web resources and services.